Ailey, GA

6:37 PM EST on February 05, 2016 (GMT -0500)
Oxley Dr., VHS | | Change Station
CLOSE
Current Station
Personal Weather Station
Location: Vidalia, GA
Elevation: 279 ft
Nearby Weather Stations
Active Advisory: Flood Warning

Elev 279 ft 32.23 °N, 82.44 °W | Updated 12 seconds ago

Clear
Clear
45.3 °F
Feels Like 45 °F
N
0.0
Wind Variable Wind from North
Gusts 0.0 mph

Today
High -- | Low -- °F
--% Chance of Precip.
Yesterday
High -- | Low -- °F
Precip. -- in
Pressure 30.34 in
Visibility 10.0 miles
Clouds Clear
Windchill 45 °F
Dew Point 33 °F
Humidity 61%
Rainfall 0.00 in
Snow Depth Not available.
7:21 AM 6:06 PM
Waning Crescent, 9% visible
METAR KVDI 052315Z AUTO 00000KT 10SM CLR 08/M03 A3034 RMK AO2
Pressure 30.34 in
Visibility 10.0 miles
Clouds Clear
Windchill 45 °F
Dew Point 33 °F
Humidity 61%
Rainfall 0.00 in
Snow Depth Not available.
7:21 AM 6:06 PM
Waning Crescent, 9% visible
METAR KVDI 052315Z AUTO 00000KT 10SM CLR 08/M03 A3034 RMK AO2

10-Day Weather Forecast

Almanac

Astronomy

Feb. 05, 2016 Rise Set
Actual Time
Civil Twilight
Nautical Twilight
Astronomical Twilight
Moon
Length of Visible Light
Length of Day
Tomorrow will be .
, % of the Moon is Illuminated

Today's Extremes

State Highs State Lows

Community

WunderPhotos

Upload Photos

1,890,881 photos uploaded!

WunderBlog® & News

Nearby

Air Quality

  Air Quality AQ Index Pollutant
Not available.

Snow Depth

Station Depth Elevation

Earthquake Activity

City Distance Mag. Time & Date
Minimum magnitude displayed is 2.5.

Coastal Water Temperatures

Place Temperature

Stations

Nearby Weather Stations

Station Location Temp. Windchill Dew Point Humidity Wind Precip. Elev Updated Type
                   

Watches & Warnings

Flood Warning
Issued: 9:15 AM EST Feb. 5, 2016 – National Weather Service

The Flood Warning continues for
the Altamaha river at Charlotteville.
* Until further notice... or until the warning is cancelled.
* At 8:45 am Friday the stage was 15.8 feet.
* Minor flooding is occurring and minor flooding is forecast.
* Flood stage is 13.0 feet.
* Forecast... the river will continue rising to near 16.3 feet by
tomorrow morning then begin falling on Sunday.
* Impact... at 16.0 feet... minor flooding expands into The Woodlands
along the river upstream and downstream from the gage on the U.S.
Highway 221 bridge. The water will be one to two feet deep over
portions of towns Bluff Lane by the bridge. Flood waters continue
to expand further into south Montgomery County around 1.5 miles
upstream from the gage. The water will be 2 to 4 feet over large
portions of Three Rivers Lane... Altamaha River Road and Ogle
sandbar Road.




               Fld observed 7am EST / 8am EDT forecast
location stg stg day time Sat sun Mon Tue Wed

Altamaha
charlottevi 13 15.8 Fri 09 am 16.3 16.2 16.0 15.9 16.0




Lat... Lon 3194 8255 3194 8243 3200 8243 3199 8254